createdAt,value
2022-12-17T00:03:10.565Z,93.33
2022-12-17T00:13:29.966Z,93.12
2022-12-17T00:17:07.606Z,93.08
2022-12-17T00:20:00.345Z,93.16
2022-12-17T00:22:58.985Z,93.65
2022-12-17T00:25:44.784Z,93.83
2022-12-17T00:28:56.025Z,93.61
2022-12-17T00:31:52.785Z,93.51
2022-12-17T00:34:52.085Z,93.40
2022-12-17T00:37:51.465Z,92.61
2022-12-17T00:40:43.934Z,92.51
2022-12-17T00:43:42.098Z,92.87
2022-12-17T00:46:29.363Z,92.87
2022-12-17T00:49:45.251Z,92.57
2022-12-17T00:52:38.922Z,92.40
2022-12-17T00:55:35.594Z,92.43
2022-12-17T00:58:48.893Z,92.91
2022-12-17T01:01:45.117Z,92.60
2022-12-17T01:08:17.496Z,92.78
2022-12-17T01:11:34.558Z,93.08
2022-12-17T01:14:48.120Z,92.48
2022-12-17T01:17:53.171Z,92.76
2022-12-17T01:21:10.030Z,93.31
2022-12-17T01:27:46.774Z,92.68
2022-12-17T01:31:12.197Z,93.47
2022-12-17T01:34:05.856Z,93.60
2022-12-17T01:37:42.436Z,93.56
2022-12-17T01:40:48.081Z,93.79
2022-12-17T01:47:20.972Z,93.82
2022-12-17T01:50:10.234Z,93.81
2022-12-17T01:52:55.804Z,93.65
2022-12-17T01:55:45.789Z,93.62
2022-12-17T01:58:31.007Z,93.57
2022-12-17T02:01:22.918Z,93.62
2022-12-17T02:04:08.913Z,93.66
2022-12-17T02:07:04.314Z,93.31
2022-12-17T02:10:21.244Z,93.68
2022-12-17T02:13:18.505Z,93.40
2022-12-17T02:16:24.331Z,93.89
2022-12-17T02:19:21.114Z,93.41
2022-12-17T02:22:14.725Z,93.30
2022-12-17T02:25:56.991Z,93.07
2022-12-17T02:28:46.059Z,92.58
2022-12-17T02:31:34.056Z,92.49
2022-12-17T02:34:22.998Z,91.85
2022-12-17T02:37:09.946Z,92.02
2022-12-17T02:39:56.801Z,92.22
2022-12-17T02:42:48.157Z,92.33
2022-12-17T02:45:36.834Z,92.54
2022-12-17T02:48:25.295Z,92.87
2022-12-17T02:51:11.068Z,92.31
2022-12-17T02:54:08.397Z,92.51
2022-12-17T02:56:54.431Z,92.10
2022-12-17T02:59:49.437Z,91.67
2022-12-17T03:02:55.539Z,91.49
2022-12-17T03:05:54.364Z,91.40
2022-12-17T03:08:49.670Z,91.36
2022-12-17T03:11:58.955Z,91.34
2022-12-17T03:14:44.652Z,91.30
2022-12-17T03:17:37.688Z,90.65
2022-12-17T03:23:33.195Z,89.77
2022-12-17T03:26:54.964Z,90.61
2022-12-17T03:30:16.786Z,90.78
2022-12-17T03:33:15.737Z,90.36
2022-12-17T03:36:18.180Z,91.11
2022-12-17T03:39:11.227Z,90.48
2022-12-17T03:42:26.771Z,90.23
2022-12-17T03:45:12.334Z,90.31
2022-12-17T03:48:12.173Z,90.13
2022-12-17T03:51:09.806Z,89.48
2022-12-17T03:54:08.980Z,89.92
2022-12-17T03:57:15.813Z,89.33
2022-12-17T04:00:29.489Z,89.07
2022-12-17T04:03:24.042Z,89.63
2022-12-17T04:09:44.271Z,90.24
2022-12-17T04:12:31.503Z,89.75
2022-12-17T04:15:17.811Z,89.45
2022-12-17T04:18:06.276Z,89.59
2022-12-17T04:20:51.829Z,89.45
2022-12-17T04:23:41.173Z,89.77
2022-12-17T04:26:27.941Z,90.25
2022-12-17T04:29:15.311Z,89.21
2022-12-17T04:32:05.413Z,89.96
2022-12-17T04:34:50.921Z,89.87
2022-12-17T04:37:38.960Z,89.01
2022-12-17T04:40:24.672Z,89.53
2022-12-17T04:43:10.041Z,89.65
2022-12-17T04:45:56.712Z,89.77
2022-12-17T04:59:34.355Z,88.91
2022-12-17T05:02:20.292Z,89.28
2022-12-17T05:05:05.807Z,88.72
2022-12-17T05:07:51.900Z,89.37
2022-12-17T05:10:37.833Z,89.05
2022-12-17T05:13:25.234Z,89.02
2022-12-17T05:16:17.479Z,89.42
2022-12-17T05:19:03.500Z,89.34
2022-12-17T05:21:49.315Z,89.44
2022-12-17T05:24:34.956Z,88.11
2022-12-17T05:27:22.149Z,89.38
2022-12-17T05:30:10.478Z,88.82
2022-12-17T05:32:56.339Z,88.63
2022-12-17T05:35:42.273Z,88.69
2022-12-17T05:38:29.048Z,88.77
2022-12-17T05:41:16.932Z,88.42
2022-12-17T05:44:05.450Z,89.09
2022-12-17T05:46:51.184Z,88.82
2022-12-17T05:49:52.735Z,88.67
2022-12-17T05:52:58.355Z,89.12
2022-12-17T05:56:13.594Z,89.51
2022-12-17T05:59:08.663Z,89.08
2022-12-17T06:02:29.416Z,88.82
2022-12-17T06:05:28.165Z,88.71
2022-12-17T06:08:27.730Z,88.80
2022-12-17T06:11:15.789Z,88.48
2022-12-17T06:14:04.741Z,88.49
2022-12-17T06:16:51.215Z,88.74
2022-12-17T06:19:38.157Z,87.77
2022-12-17T06:22:24.194Z,88.41
2022-12-17T06:25:10.627Z,88.58
2022-12-17T06:27:56.118Z,88.56
2022-12-17T06:30:43.539Z,88.29
2022-12-17T06:33:30.262Z,88.71
2022-12-17T06:36:22.629Z,88.60
2022-12-17T06:39:11.977Z,88.32
2022-12-17T06:42:04.272Z,88.63
2022-12-17T06:44:50.909Z,89.01
2022-12-17T06:47:39.902Z,88.47
2022-12-17T06:50:26.235Z,88.87
2022-12-17T06:53:39.594Z,88.04
2022-12-17T06:56:26.293Z,87.74
2022-12-17T06:59:13.117Z,88.10
2022-12-17T07:01:58.685Z,87.51
2022-12-17T07:04:44.083Z,87.57
2022-12-17T07:07:30.925Z,88.67
2022-12-17T07:10:19.848Z,88.08
2022-12-17T07:13:05.264Z,88.19
2022-12-17T07:16:07.505Z,87.67
2022-12-17T07:18:54.778Z,88.37
2022-12-17T07:21:45.077Z,88.16
2022-12-17T07:24:33.957Z,88.99
2022-12-17T07:27:26.758Z,88.13
2022-12-17T07:30:16.173Z,88.03
2022-12-17T07:33:30.069Z,87.66
2022-12-17T07:36:18.218Z,87.80
2022-12-17T07:39:07.929Z,87.76
2022-12-17T07:41:53.293Z,88.00
2022-12-17T07:44:40.924Z,88.04
2022-12-17T07:47:34.489Z,88.28
2022-12-17T07:50:22.756Z,88.41
2022-12-17T07:53:22.423Z,87.71
2022-12-17T07:56:21.144Z,88.36
2022-12-17T07:59:06.915Z,88.03
2022-12-17T08:05:52.890Z,88.07
2022-12-17T08:12:40.262Z,87.66
2022-12-17T08:15:34.716Z,87.09
2022-12-17T08:25:43.958Z,87.63
2022-12-17T08:29:53.366Z,87.91
2022-12-17T08:33:02.487Z,87.90
2022-12-17T08:35:48.580Z,87.79
2022-12-17T08:38:44.382Z,87.95
2022-12-17T08:41:35.379Z,88.08
2022-12-17T08:44:24.485Z,88.42
2022-12-17T08:48:09.830Z,89.10
2022-12-17T08:51:51.469Z,89.17
2022-12-17T08:57:31.812Z,89.51
2022-12-17T09:00:22.281Z,88.99
2022-12-17T09:04:35.110Z,88.97
2022-12-17T09:11:52.977Z,89.48
2022-12-17T09:19:39.089Z,88.98
2022-12-17T09:23:47.555Z,89.57
2022-12-17T10:02:57.288Z,92.71
2022-12-17T10:06:45.872Z,93.78
2022-12-17T10:12:09.717Z,94.50
2022-12-17T10:14:06.034Z,95.78
2022-12-17T10:17:11.613Z,95.96
2022-12-17T10:20:02.604Z,96.52
2022-12-17T10:22:59.151Z,97.08
2022-12-17T10:25:46.652Z,98.07
2022-12-17T10:28:45.202Z,99.04
2022-12-17T10:31:49.137Z,99.54
2022-12-17T10:35:19.445Z,99.52
2022-12-17T10:38:34.478Z,99.75
2022-12-17T10:41:23.702Z,100.00
2022-12-17T10:48:06.778Z,100.00
2022-12-17T10:51:00.348Z,100.00
2022-12-17T11:09:29.270Z,99.65
2022-12-17T11:12:23.558Z,99.60
2022-12-17T11:15:26.057Z,99.28
2022-12-17T11:18:37.423Z,99.03
2022-12-17T11:21:47.807Z,99.21
2022-12-17T11:24:43.444Z,99.23
2022-12-17T11:27:40.677Z,99.37
2022-12-17T11:30:35.304Z,99.01
2022-12-17T11:33:56.415Z,98.91
2022-12-17T11:36:47.939Z,98.75
2022-12-17T11:40:03.555Z,98.56
2022-12-17T11:42:58.733Z,98.41
2022-12-17T11:46:14.433Z,98.26
2022-12-17T11:49:10.061Z,98.45
2022-12-17T11:52:21.612Z,98.24
2022-12-17T11:55:19.214Z,98.57
2022-12-17T11:58:11.208Z,98.25
2022-12-17T12:01:07.894Z,97.89
2022-12-17T12:04:11.753Z,98.15
2022-12-17T12:07:18.021Z,97.71
2022-12-17T12:10:25.749Z,97.88
2022-12-17T12:13:48.029Z,97.52
2022-12-17T12:16:54.520Z,97.29
2022-12-17T12:19:58.909Z,97.34
2022-12-17T12:23:17.833Z,97.21
2022-12-17T12:26:35.210Z,96.78
2022-12-17T12:29:24.875Z,97.06
2022-12-17T12:32:38.817Z,96.84
2022-12-17T13:16:32.161Z,94.92
2022-12-17T13:19:23.579Z,94.65
2022-12-17T13:26:15.870Z,94.67
2022-12-17T13:29:19.864Z,94.25
2022-12-17T13:31:59.108Z,94.47
2022-12-17T13:35:13.205Z,94.17
2022-12-17T13:37:55.671Z,94.21
2022-12-17T13:44:54.340Z,94.17
2022-12-17T13:48:08.785Z,93.81
2022-12-17T13:52:11.979Z,93.95
2022-12-17T13:59:09.841Z,93.99
2022-12-17T14:05:38.501Z,94.02
2022-12-17T14:08:05.916Z,94.06
2022-12-17T14:10:33.870Z,94.00
2022-12-17T14:13:08.336Z,93.98
2022-12-17T14:15:35.050Z,93.86
2022-12-17T14:18:03.365Z,94.12
2022-12-17T14:20:33.844Z,94.19
2022-12-17T14:23:12.475Z,94.02
2022-12-17T14:25:42.359Z,94.06
2022-12-17T14:28:50.296Z,94.19
2022-12-17T14:31:29.346Z,94.19
2022-12-17T14:34:09.421Z,94.31
2022-12-17T14:36:38.450Z,94.02
2022-12-17T14:39:17.155Z,93.79
2022-12-17T14:42:02.501Z,93.78
2022-12-17T14:44:31.972Z,94.15
2022-12-17T14:47:13.359Z,93.79
2022-12-17T14:50:04.513Z,94.17
2022-12-17T14:52:53.043Z,94.21
2022-12-17T14:55:33.709Z,94.21
2022-12-17T14:58:29.619Z,93.57
2022-12-17T15:01:08.025Z,93.29
2022-12-17T15:03:40.568Z,93.40
2022-12-17T15:06:11.477Z,93.72
2022-12-17T15:08:43.618Z,93.63
2022-12-17T15:11:16.227Z,94.01
2022-12-17T15:13:43.092Z,93.71
2022-12-17T15:16:10.865Z,93.01
2022-12-17T15:18:37.999Z,92.50
2022-12-17T15:21:05.537Z,92.52
2022-12-17T15:23:32.216Z,92.56
2022-12-17T15:25:58.903Z,93.13
2022-12-17T15:28:25.676Z,93.15
2022-12-17T15:30:52.621Z,92.73
2022-12-17T15:33:19.463Z,92.53
2022-12-17T15:35:46.182Z,92.98
2022-12-17T15:38:13.112Z,92.97
2022-12-17T15:40:39.920Z,92.25
2022-12-17T15:43:12.394Z,92.70
2022-12-17T15:45:40.567Z,93.04
2022-12-17T15:48:07.837Z,92.69
2022-12-17T15:50:34.605Z,92.92
2022-12-17T15:53:01.737Z,92.85
2022-12-17T15:55:28.948Z,93.04
2022-12-17T15:57:55.543Z,92.72
2022-12-17T16:00:22.548Z,92.53
2022-12-17T16:02:49.628Z,92.93
2022-12-17T16:05:16.698Z,93.40
2022-12-17T16:07:43.428Z,93.06
2022-12-17T16:10:11.350Z,93.06
2022-12-17T16:12:38.326Z,93.54
2022-12-17T16:15:05.712Z,93.26
2022-12-17T16:17:32.831Z,93.00
2022-12-17T16:20:00.547Z,93.35
2022-12-17T16:22:28.029Z,93.15
2022-12-17T16:24:54.907Z,93.60
2022-12-17T16:27:21.496Z,93.68
2022-12-17T16:29:48.186Z,93.83
2022-12-17T16:32:16.877Z,93.74
2022-12-17T16:34:44.539Z,93.55
2022-12-17T16:37:12.067Z,93.57
2022-12-17T16:39:39.200Z,93.76
2022-12-17T16:42:06.398Z,93.87
2022-12-17T16:44:33.396Z,93.14
2022-12-17T16:47:00.124Z,93.26
2022-12-17T16:49:27.866Z,94.03
2022-12-17T16:51:55.812Z,94.08
2022-12-17T16:54:27.658Z,93.51
2022-12-17T16:56:54.858Z,93.30
2022-12-17T16:59:23.724Z,93.68
2022-12-17T17:01:52.143Z,94.05
2022-12-17T17:04:23.238Z,94.05
2022-12-17T17:06:56.188Z,94.11
2022-12-17T17:09:24.679Z,93.86
2022-12-17T17:11:54.253Z,93.79
2022-12-17T17:14:20.725Z,94.10
2022-12-17T17:16:47.455Z,94.43
2022-12-17T17:19:14.009Z,94.32
2022-12-17T17:21:42.739Z,94.81
2022-12-17T17:24:21.658Z,94.03
2022-12-17T17:26:50.407Z,94.08
2022-12-17T17:29:18.234Z,94.22
2022-12-17T17:34:31.693Z,94.37
2022-12-17T17:36:58.695Z,93.95
2022-12-17T17:39:25.166Z,94.29
2022-12-17T17:41:51.984Z,94.38
2022-12-17T17:44:18.733Z,94.37
2022-12-17T17:46:45.352Z,93.71
2022-12-17T17:49:12.736Z,93.71
2022-12-17T17:54:29.302Z,93.83
2022-12-17T17:56:56.031Z,93.96
2022-12-17T17:59:29.600Z,93.62
2022-12-17T18:01:58.578Z,93.99
2022-12-17T18:04:25.560Z,93.77
2022-12-17T18:07:23.525Z,93.54
2022-12-17T18:09:39.266Z,94.01
2022-12-17T18:12:26.197Z,93.45
2022-12-17T18:17:44.879Z,93.26
2022-12-17T18:20:12.280Z,93.00
2022-12-17T18:22:39.870Z,93.25
2022-12-17T18:25:06.907Z,92.99
2022-12-17T18:27:33.506Z,92.74
2022-12-17T18:30:00.004Z,93.16
2022-12-17T18:32:28.701Z,93.17
2022-12-17T18:34:55.841Z,92.51
2022-12-17T18:37:22.907Z,92.46
2022-12-17T18:39:49.634Z,93.17
2022-12-17T18:42:35.409Z,92.72
2022-12-17T18:45:03.437Z,92.94
2022-12-17T18:47:30.288Z,92.90
2022-12-17T18:49:57.405Z,92.76
2022-12-17T18:52:27.010Z,93.05
2022-12-17T18:54:53.537Z,92.77
2022-12-17T18:57:20.376Z,92.74
2022-12-17T18:59:46.916Z,92.78
2022-12-17T19:02:14.428Z,92.55
2022-12-17T19:04:41.560Z,92.54
2022-12-17T19:07:08.283Z,93.08
2022-12-17T19:09:35.664Z,92.37
2022-12-17T19:12:04.345Z,92.40
2022-12-17T19:14:33.893Z,92.33
2022-12-17T19:17:00.438Z,92.66
2022-12-17T19:19:27.446Z,92.00
2022-12-17T19:21:55.776Z,92.23
2022-12-17T19:24:23.398Z,91.47
2022-12-17T19:26:50.581Z,91.49
2022-12-17T19:29:21.945Z,91.38
2022-12-17T19:31:49.397Z,91.84
2022-12-17T19:34:18.560Z,91.54
2022-12-17T19:36:46.678Z,91.10
2022-12-17T19:39:19.477Z,91.12
2022-12-17T19:41:46.441Z,90.92
2022-12-17T19:44:18.386Z,91.98
2022-12-17T19:46:52.656Z,91.25
2022-12-17T19:49:20.568Z,91.25
2022-12-17T19:51:47.154Z,91.10
2022-12-17T19:54:15.122Z,91.86
2022-12-17T19:56:43.861Z,91.33
2022-12-17T19:59:12.094Z,91.90
2022-12-17T20:01:44.902Z,91.70
2022-12-17T20:04:13.104Z,92.00
2022-12-17T20:06:42.597Z,92.17
2022-12-17T20:09:09.311Z,91.90
2022-12-17T20:11:36.350Z,91.98
2022-12-17T20:14:20.865Z,92.40
2022-12-17T20:16:59.140Z,91.98
2022-12-17T20:19:31.356Z,91.97
2022-12-17T20:21:59.934Z,91.62
2022-12-17T20:24:31.152Z,92.56
2022-12-17T20:26:59.485Z,92.88
2022-12-17T20:29:27.464Z,92.91
2022-12-17T20:31:55.333Z,92.88
2022-12-17T20:34:25.132Z,92.71
2022-12-17T20:36:53.083Z,92.87
2022-12-17T20:39:26.127Z,92.34
2022-12-17T20:41:54.777Z,92.40
2022-12-17T20:44:21.684Z,92.38
2022-12-17T20:46:48.390Z,92.34
2022-12-17T20:49:15.006Z,92.34
2022-12-17T20:51:42.001Z,91.88
2022-12-17T20:54:09.493Z,91.37
2022-12-17T20:56:37.640Z,91.56
2022-12-17T20:59:07.216Z,91.57
2022-12-17T21:01:36.579Z,92.13
2022-12-17T21:04:06.555Z,91.83
2022-12-17T21:06:44.838Z,91.51
2022-12-17T21:09:12.810Z,91.76
2022-12-17T21:11:40.939Z,91.78
2022-12-17T21:14:10.712Z,91.88
2022-12-17T21:16:39.114Z,92.00
2022-12-17T21:19:07.789Z,92.61
2022-12-17T21:21:38.079Z,92.13
2022-12-17T21:24:06.509Z,92.04
2022-12-17T21:26:44.903Z,91.85
2022-12-17T21:29:12.531Z,91.92
2022-12-17T21:31:42.170Z,91.72
2022-12-17T21:34:12.969Z,91.53
2022-12-17T21:36:40.240Z,92.05
2022-12-17T21:39:09.375Z,92.27
2022-12-17T21:41:43.208Z,91.64
2022-12-17T21:44:15.519Z,91.94
2022-12-17T21:46:43.254Z,92.29
2022-12-17T21:49:10.499Z,92.44
2022-12-17T21:51:37.450Z,92.04
2022-12-17T21:54:08.210Z,92.29
2022-12-17T21:56:36.518Z,91.54
2022-12-17T21:59:04.567Z,92.57
2022-12-17T22:01:33.980Z,92.08
2022-12-17T22:04:03.581Z,91.78
2022-12-17T22:06:34.592Z,92.10
2022-12-17T22:09:19.277Z,92.55
2022-12-17T22:12:15.329Z,92.09
2022-12-17T22:14:42.105Z,92.41
2022-12-17T22:17:08.917Z,92.42
2022-12-17T22:19:35.432Z,92.71
2022-12-17T22:22:02.037Z,92.85
2022-12-17T22:24:29.334Z,92.64
2022-12-17T22:27:02.618Z,92.91
2022-12-17T22:29:47.949Z,92.74
2022-12-17T22:32:36.169Z,92.24
2022-12-17T22:36:15.779Z,91.90
2022-12-17T22:40:07.119Z,92.11
2022-12-17T22:44:37.332Z,92.58
2022-12-17T22:44:43.344Z,92.25
2022-12-17T22:46:18.162Z,92.70
2022-12-17T22:48:44.888Z,92.43
2022-12-17T22:51:16.011Z,91.93
2022-12-17T22:53:50.804Z,92.47
2022-12-17T22:56:31.351Z,91.65
2022-12-17T22:59:07.168Z,92.17
2022-12-17T23:01:34.672Z,92.01
2022-12-17T23:04:02.021Z,92.47
2022-12-17T23:06:29.067Z,93.43
2022-12-17T23:08:55.739Z,92.62
2022-12-17T23:11:26.758Z,93.06
2022-12-17T23:13:54.661Z,92.29
2022-12-17T23:16:21.701Z,92.73
2022-12-17T23:18:50.633Z,92.43
2022-12-17T23:21:25.537Z,92.28
2022-12-17T23:23:53.765Z,91.69
2022-12-17T23:26:23.556Z,92.25
2022-12-17T23:28:54.340Z,91.86
2022-12-17T23:31:26.997Z,92.40
2022-12-17T23:33:54.017Z,91.86
2022-12-17T23:36:22.887Z,92.28
2022-12-17T23:38:50.712Z,92.42
2022-12-17T23:41:23.389Z,91.49
2022-12-17T23:43:50.195Z,91.59
2022-12-17T23:46:18.741Z,91.64
2022-12-17T23:48:47.398Z,91.62
2022-12-17T23:51:17.850Z,91.89
2022-12-17T23:53:44.987Z,91.47
2022-12-17T23:56:17.740Z,91.45
2022-12-17T23:58:45.523Z,91.63
